Time;durP1;ratioP1;P1;durP2;ratioP2;P2;SDS_P1;SDS_P2;PMS_P1;PMS_P2;Temp;Humidity;BMP_temperature;BMP_pressure;BME280_temperature;BME280_humidity;BME280_pressure;Samples;Min_cycle;Max_cycle;Signal;HPM_P1;HPM_P2
2023/09/08 00:02:12;;;;;;;1.50;1.00;;;21.20;98.20;;;;;;4934654;29;20481;-83
2023/09/08 00:04:39;;;;;;;1.47;0.90;;;21.10;98.20;;;;;;4931740;29;20452;-83
2023/09/08 00:07:06;;;;;;;1.47;0.90;;;21.20;98.20;;;;;;4927958;28;20495;-83
2023/09/08 00:09:33;;;;;;;1.47;0.90;;;21.20;98.20;;;;;;4930934;29;20467;-83
2023/09/08 00:12:02;;;;;;;1.43;0.90;;;21.10;98.20;;;;;;4914854;29;20484;-84
2023/09/08 00:14:29;;;;;;;1.43;0.90;;;21.10;98.20;;;;;;4921135;29;20501;-84
2023/09/08 00:16:55;;;;;;;1.47;0.90;;;21.10;98.20;;;;;;4930753;29;20489;-84
2023/09/08 00:19:22;;;;;;;1.50;0.90;;;21.10;98.20;;;;;;4942653;29;20463;-84
2023/09/08 00:21:49;;;;;;;1.50;0.90;;;21.10;98.20;;;;;;4933134;28;20493;-84
2023/09/08 00:24:17;;;;;;;1.43;0.90;;;21.00;98.20;;;;;;4944049;29;20838;-85
2023/09/08 00:26:44;;;;;;;1.50;1.00;;;21.00;98.20;;;;;;4931114;29;20483;-85
2023/09/08 00:29:12;;;;;;;1.47;0.90;;;21.00;98.20;;;;;;4926558;29;20457;-84
2023/09/08 00:31:39;;;;;;;1.50;0.90;;;20.90;98.20;;;;;;4920313;29;20491;-85
2023/09/08 00:34:06;;;;;;;1.50;0.97;;;20.90;98.20;;;;;;4933051;29;20479;-84
2023/09/08 00:36:33;;;;;;;1.60;1.20;;;20.90;98.20;;;;;;4930982;28;20495;-84
2023/09/08 00:38:59;;;;;;;1.50;0.90;;;20.90;98.20;;;;;;4933998;29;20978;-84
2023/09/08 00:41:26;;;;;;;2.00;1.40;;;20.90;98.20;;;;;;4919247;28;20479;-84
2023/09/08 00:43:53;;;;;;;1.50;0.90;;;20.90;98.20;;;;;;4931619;29;20475;-84
2023/09/08 00:46:21;;;;;;;1.47;0.90;;;20.90;98.20;;;;;;4914549;28;20484;-84
2023/09/08 00:48:48;;;;;;;1.43;0.90;;;20.90;98.20;;;;;;4931957;29;20461;-83
2023/09/08 00:51:15;;;;;;;1.50;1.00;;;20.90;98.20;;;;;;4915907;28;20479;-84
2023/09/08 00:53:42;;;;;;;1.43;0.90;;;20.90;98.20;;;;;;4940273;29;20483;-84
2023/09/08 00:56:10;;;;;;;1.50;0.90;;;20.90;98.20;;;;;;4921558;29;20567;-84
2023/09/08 00:58:37;;;;;;;1.47;0.90;;;20.90;98.20;;;;;;4935272;29;20479;-85
2023/09/08 01:01:05;;;;;;;1.47;0.90;;;20.90;98.20;;;;;;4919266;29;20467;-84
2023/09/08 01:03:33;;;;;;;1.70;1.60;;;20.80;98.20;;;;;;4929334;29;20532;-84
2023/09/08 01:06:01;;;;;;;1.47;0.90;;;20.80;98.20;;;;;;4917279;28;20469;-88
2023/09/08 01:08:28;;;;;;;1.50;0.90;;;20.70;98.20;;;;;;4947675;29;20560;-85
2023/09/08 01:10:55;;;;;;;1.50;0.90;;;20.70;98.20;;;;;;4918531;28;20508;-87
2023/09/08 01:13:22;;;;;;;1.70;1.17;;;20.60;98.20;;;;;;4951855;29;20502;-85
2023/09/08 01:15:49;;;;;;;1.50;0.90;;;20.60;98.20;;;;;;4917003;28;20475;-89
2023/09/08 01:18:16;;;;;;;1.47;0.90;;;20.50;98.20;;;;;;4943391;29;20460;-84
2023/09/08 01:21:08;;;;;;;1.50;1.00;;;20.50;98.20;;;;;;4925251;29;20456;-86
2023/09/08 01:23:47;;;;;;;1.50;0.90;;;20.40;98.20;;;;;;4922734;29;20539;-86
2023/09/08 01:26:18;;;;;;;1.50;1.10;;;20.40;98.20;;;;;;4926960;28;21033;-86
2023/09/08 01:28:49;;;;;;;1.50;0.90;;;20.40;98.20;;;;;;4949386;29;20491;-86
2023/09/08 01:31:17;;;;;;;1.47;0.90;;;20.30;98.20;;;;;;4926908;29;20652;-86
2023/09/08 01:33:45;;;;;;;1.47;0.90;;;20.30;98.20;;;;;;4927141;29;20501;-87
2023/09/08 01:36:12;;;;;;;1.50;0.90;;;20.20;98.20;;;;;;4921693;29;20819;-86
2023/09/08 01:38:39;;;;;;;1.47;0.93;;;20.20;98.20;;;;;;4932581;29;20461;-86
2023/09/08 01:41:05;;;;;;;1.50;0.90;;;20.20;98.20;;;;;;4913492;29;20478;-86
2023/09/08 01:43:33;;;;;;;1.50;0.90;;;20.10;98.20;;;;;;4937382;29;20484;-86
2023/09/08 01:46:00;;;;;;;1.50;0.90;;;20.10;98.20;;;;;;4916824;28;20473;-88
2023/09/08 01:48:27;;;;;;;1.47;0.90;;;20.10;98.20;;;;;;4950120;29;20468;-86
2023/09/08 01:50:54;;;;;;;1.43;0.90;;;20.00;98.20;;;;;;4921625;29;20466;-85
2023/09/08 01:53:20;;;;;;;1.43;0.90;;;20.00;98.20;;;;;;4949371;28;20483;-85
2023/09/08 01:55:47;;;;;;;1.50;1.00;;;19.90;98.20;;;;;;4933237;29;20478;-85
2023/09/08 01:58:14;;;;;;;1.50;0.90;;;19.90;98.20;;;;;;4952899;29;20484;-85
2023/09/08 02:00:42;;;;;;;1.50;0.90;;;19.90;98.20;;;;;;4933358;29;20974;-86
2023/09/08 02:03:09;;;;;;;1.50;0.90;;;19.80;98.20;;;;;;4945647;28;20496;-84
2023/09/08 02:05:38;;;;;;;1.50;1.13;;;19.80;98.20;;;;;;4934796;29;20468;-85
2023/09/08 02:08:06;;;;;;;1.50;0.90;;;19.80;98.20;;;;;;4927046;29;20487;-85
2023/09/08 02:10:32;;;;;;;1.50;0.90;;;19.70;98.20;;;;;;4937603;29;20467;-85
2023/09/08 02:12:59;;;;;;;1.50;0.90;;;19.70;98.20;;;;;;4929129;29;20491;-85
2023/09/08 02:15:26;;;;;;;1.50;0.90;;;19.70;98.20;;;;;;4940919;29;20959;-85
2023/09/08 02:17:55;;;;;;;1.40;0.90;;;19.70;98.20;;;;;;4945971;28;20486;-85
2023/09/08 02:20:22;;;;;;;1.60;1.20;;;19.70;98.20;;;;;;4940909;29;20459;-85
2023/09/08 02:22:50;;;;;;;1.50;0.90;;;19.60;98.20;;;;;;4946810;28;20527;-85
2023/09/08 02:25:17;;;;;;;1.47;0.90;;;19.60;98.20;;;;;;4939480;29;20549;-85
2023/09/08 02:27:44;;;;;;;1.43;0.90;;;19.60;98.20;;;;;;4942292;28;20478;-86
2023/09/08 02:30:11;;;;;;;1.50;1.00;;;19.60;98.20;;;;;;4940480;29;20460;-86
2023/09/08 02:32:46;;;;;;;1.50;0.93;;;19.60;98.20;;;;;;4953306;23;20489;-81
2023/09/08 02:35:18;;;;;;;1.50;0.90;;;19.50;98.20;;;;;;4973386;28;20454;-83
2023/09/08 02:37:47;;;;;;;1.73;1.63;;;19.50;98.20;;;;;;4951898;28;20864;-83
2023/09/08 02:40:17;;;;;;;1.47;0.90;;;19.40;98.20;;;;;;4975117;28;20463;-81
2023/09/08 02:42:44;;;;;;;1.50;1.00;;;19.40;98.20;;;;;;4948462;28;20618;-80
2023/09/08 02:45:12;;;;;;;1.50;0.90;;;19.40;98.20;;;;;;4963940;28;20502;-81
2023/09/08 02:47:41;;;;;;;1.50;0.90;;;19.40;98.20;;;;;;4962044;28;20484;-82
2023/09/08 02:50:13;;;;;;;1.50;0.90;;;19.40;98.20;;;;;;4968136;28;20565;-82
2023/09/08 02:52:42;;;;;;;1.43;0.90;;;19.40;98.20;;;;;;4961648;28;20597;-84
2023/09/08 02:55:12;;;;;;;1.47;0.87;;;19.40;98.20;;;;;;4966225;28;20467;-83
2023/09/08 02:57:44;;;;;;;1.43;0.90;;;19.40;98.20;;;;;;4963465;28;20934;-83
2023/09/08 03:00:12;;;;;;;1.50;0.90;;;19.40;98.20;;;;;;4966858;28;20467;-83
2023/09/08 03:02:40;;;;;;;1.47;0.90;;;19.30;98.20;;;;;;4962219;28;20535;-83
2023/09/08 03:05:10;;;;;;;1.50;0.90;;;19.30;98.20;;;;;;4972889;28;20541;-83
2023/09/08 03:07:40;;;;;;;1.87;1.67;;;19.30;98.20;;;;;;4952280;28;20484;-83
2023/09/08 03:10:14;;;;;;;1.40;0.90;;;19.20;98.20;;;;;;4970167;28;20490;-83
2023/09/08 03:12:41;;;;;;;1.50;0.90;;;19.20;98.20;;;;;;4954802;28;20487;-83
2023/09/08 03:15:09;;;;;;;1.50;0.90;;;19.10;98.20;;;;;;4964524;28;20502;-83
2023/09/08 03:17:38;;;;;;;1.50;1.00;;;19.10;98.20;;;;;;4954322;28;21176;-83
2023/09/08 03:20:14;;;;;;;1.47;1.00;;;19.10;98.20;;;;;;4971385;28;20974;-83
2023/09/08 03:26:05;;;;;;;1.50;0.90;;;19.00;98.20;;;;;;4936310;28;20473;-83
2023/09/08 03:28:40;;;;;;;1.50;1.00;;;19.00;98.20;;;;;;4965525;28;20474;-83
2023/09/08 03:31:14;;;;;;;1.50;0.90;;;18.90;98.20;;;;;;4952084;28;20487;-83
2023/09/08 03:33:42;;;;;;;1.50;0.90;;;18.90;98.20;;;;;;4965890;28;20533;-83
2023/09/08 03:36:15;;;;;;;1.50;1.00;;;18.90;98.20;;;;;;4952491;28;20486;-84
2023/09/08 03:38:41;;;;;;;1.50;0.90;;;18.90;98.20;;;;;;4966559;28;20549;-83
2023/09/08 03:41:26;;;;;;;1.47;0.90;;;18.80;98.20;;;;;;4953920;28;20482;-83
2023/09/08 03:44:00;;;;;;;1.47;0.90;;;18.80;98.20;;;;;;4952808;28;20482;-82
2023/09/08 03:46:39;;;;;;;1.47;0.90;;;18.80;98.20;;;;;;4951972;28;20489;-83
2023/09/08 03:49:10;;;;;;;1.47;0.90;;;18.80;98.20;;;;;;4964351;28;20553;-83
2023/09/08 03:51:40;;;;;;;1.50;1.10;;;18.80;98.20;;;;;;4943555;28;20546;-83
2023/09/08 03:54:09;;;;;;;1.50;0.90;;;18.80;98.20;;;;;;4963641;28;20969;-83
2023/09/08 03:56:40;;;;;;;1.50;0.90;;;18.80;98.20;;;;;;4945464;28;20541;-83
2023/09/08 03:59:07;;;;;;;1.50;1.00;;;18.80;98.20;;;;;;4962561;28;20462;-83
2023/09/08 04:01:47;;;;;;;1.43;1.00;;;18.80;98.20;;;;;;4947873;28;20481;-83
2023/09/08 04:04:23;;;;;;;1.50;0.90;;;18.80;98.20;;;;;;4957763;28;20537;-83
2023/09/08 04:06:50;;;;;;;1.50;1.00;;;18.70;98.20;;;;;;4939939;28;20479;-84
2023/09/08 04:09:17;;;;;;;1.50;1.00;;;18.70;98.20;;;;;;4965044;28;20535;-83
2023/09/08 04:11:45;;;;;;;1.50;0.90;;;18.80;98.20;;;;;;4952400;28;20493;-84
2023/09/08 04:14:12;;;;;;;1.50;0.90;;;18.70;98.20;;;;;;4954381;28;20549;-84
2023/09/08 04:16:39;;;;;;;1.47;0.90;;;18.70;98.20;;;;;;4945878;28;20514;-83
2023/09/08 04:19:06;;;;;;;1.50;0.90;;;18.70;98.20;;;;;;4955819;28;20581;-81
2023/09/08 04:22:02;;;;;;;1.50;1.00;;;18.80;98.20;;;;;;4948546;28;20463;-81
2023/09/08 04:24:29;;;;;;;1.50;0.90;;;18.80;98.20;;;;;;4964980;28;20812;-81
2023/09/08 04:27:00;;;;;;;1.50;1.00;;;18.80;98.20;;;;;;4947482;28;21013;-82
2023/09/08 04:32:33;;;;;;;1.43;0.90;;;18.80;98.20;;;;;;4936904;28;20511;-81
2023/09/08 04:35:37;;;;;;;1.43;0.90;;;18.90;98.20;;;;;;4959156;28;20467;-81
2023/09/08 04:38:08;;;;;;;1.50;1.00;;;18.90;98.20;;;;;;4848462;29;20486;-81
2023/09/08 04:40:35;;;;;;;1.50;0.97;;;19.00;98.20;;;;;;4934960;28;20462;-81
2023/09/08 04:43:06;;;;;;;1.50;1.00;;;19.00;98.20;;;;;;4948856;28;20483;-81
2023/09/08 04:45:36;;;;;;;1.50;1.00;;;19.00;98.20;;;;;;4958989;28;20466;-82
2023/09/08 04:48:37;;;;;;;1.50;1.00;;;19.00;98.20;;;;;;4949964;28;20482;-82
2023/09/08 04:51:07;;;;;;;1.50;0.90;;;19.00;98.20;;;;;;4949811;28;20463;-82
2023/09/08 04:53:36;;;;;;;1.43;0.90;;;19.00;98.20;;;;;;4963497;28;20491;-81
2023/09/08 04:56:08;;;;;;;1.50;0.90;;;19.00;98.20;;;;;;4954786;28;20506;-82
2023/09/08 05:04:26;;;;;;;1.50;0.90;;;18.90;98.20;;;;;;5060175;23;20535;-82
2023/09/08 05:06:56;;;;;;;1.50;0.90;;;18.80;98.20;;;;;;4927911;29;20476;-82
2023/09/08 05:09:24;;;;;;;1.47;0.90;;;18.80;98.20;;;;;;4943645;29;21077;-83
2023/09/08 05:12:00;;;;;;;1.40;0.90;;;18.80;98.20;;;;;;4933955;29;20483;-80
2023/09/08 05:14:41;;;;;;;1.50;0.90;;;18.80;98.20;;;;;;4922192;29;20495;-81
2023/09/08 05:24:18;;;;;;;1.47;0.90;;;18.80;98.20;;;;;;4816394;29;20480;-82
2023/09/08 05:27:26;;;;;;;1.50;1.00;;;18.80;98.20;;;;;;4906042;29;20462;-82
2023/09/08 05:30:19;;;;;;;1.47;0.90;;;18.90;98.20;;;;;;4927061;29;20471;-82
2023/09/08 05:32:54;;;;;;;1.50;1.00;;;18.90;98.20;;;;;;4916394;29;20489;-82
2023/09/08 05:35:22;;;;;;;1.40;0.90;;;18.90;98.20;;;;;;4927496;29;20539;-82
2023/09/08 05:40:44;;;;;;;1.47;0.90;;;19.00;98.20;;;;;;4924020;29;20472;-82
2023/09/08 05:43:33;;;;;;;1.43;0.90;;;19.00;98.20;;;;;;4911713;29;20487;-83
2023/09/08 05:49:51;;;;;;;1.40;0.90;;;19.10;98.20;;;;;;4890065;29;20467;-82
2023/09/08 05:57:36;;;;;;;1.50;0.93;;;19.30;98.20;;;;;;3327655;23;20490;-82
2023/09/08 06:00:22;;;;;;;1.50;0.90;;;19.40;98.20;;;;;;4975659;28;20480;-83
2023/09/08 06:03:12;;;;;;;1.50;1.00;;;19.50;98.20;;;;;;4959721;28;20487;-82
2023/09/08 06:08:39;;;;;;;1.43;0.90;;;19.80;98.20;;;;;;4949285;28;20482;-82
2023/09/08 06:11:09;;;;;;;1.50;0.90;;;20.00;98.20;;;;;;4963557;28;20458;-83
2023/09/08 06:14:09;;;;;;;1.43;0.90;;;20.10;98.20;;;;;;4970878;28;20492;-83
2023/09/08 06:16:41;;;;;;;1.60;1.30;;;20.30;98.20;;;;;;4962408;28;20475;-83
2023/09/08 06:19:10;;;;;;;1.47;0.90;;;20.50;98.20;;;;;;4968719;28;20469;-82
2023/09/08 06:58:02;;;;;;;1.47;0.90;;;22.50;97.30;;;;;;4946254;28;20543;-85
2023/09/08 07:00:49;;;;;;;1.47;0.90;;;22.50;96.40;;;;;;4942874;29;20484;-84
2023/09/08 07:14:17;;;;;;;1.60;1.20;;;23.10;94.50;;;;;;4980468;23;20494;-84
2023/09/08 07:20:15;;;;;;;1.50;0.90;;;23.30;94.40;;;;;;4932260;29;20463;-85
2023/09/08 07:23:09;;;;;;;1.50;0.90;;;23.30;93.90;;;;;;4917302;29;21141;-84
2023/09/08 07:40:26;;;;;;;1.47;0.87;;;24.10;91.70;;;;;;4969938;28;20977;-83
2023/09/08 07:48:08;;;;;;;1.47;0.90;;;24.50;91.00;;;;;;4920473;28;20480;-83
2023/09/08 07:51:07;;;;;;;1.47;0.83;;;24.50;91.80;;;;;;4953346;28;20512;-85
2023/09/08 07:57:27;;;;;;;1.70;1.17;;;24.90;90.40;;;;;;4872304;29;20486;-83
2023/09/08 08:01:00;;;;;;;1.50;0.90;;;25.20;88.90;;;;;;4886600;29;20561;-84
2023/09/08 08:14:40;;;;;;;1.50;0.87;;;25.80;88.90;;;;;;4840226;29;21217;-83
2023/09/08 08:17:11;;;;;;;1.50;0.80;;;25.90;88.70;;;;;;4939697;28;20570;-82
2023/09/08 08:19:38;;;;;;;1.47;0.90;;;26.00;88.40;;;;;;4959387;28;20463;-81
2023/09/08 08:22:08;;;;;;;1.50;0.90;;;26.20;88.40;;;;;;4950409;28;20483;-84
2023/09/08 08:24:35;;;;;;;1.47;0.80;;;26.20;87.10;;;;;;4978395;28;20454;-82
2023/09/08 08:27:30;;;;;;;1.60;1.30;;;26.40;87.40;;;;;;4961696;28;20478;-84
2023/09/08 08:33:01;;;;;;;1.50;0.90;;;26.40;86.30;;;;;;4954001;28;20500;-80
2023/09/08 08:35:28;;;;;;;1.50;0.80;;;26.40;87.50;;;;;;4970676;23;20510;-81
2023/09/08 08:37:55;;;;;;;1.50;1.00;;;26.50;86.50;;;;;;4942504;28;20501;-82
2023/09/08 08:40:26;;;;;;;1.50;0.87;;;26.50;86.90;;;;;;4943156;28;20482;-83
2023/09/08 08:42:55;;;;;;;1.50;0.80;;;26.70;87.20;;;;;;4948406;28;20493;-81
2023/09/08 08:45:26;;;;;;;1.47;0.80;;;26.90;86.10;;;;;;4934493;28;20945;-82
2023/09/08 08:47:53;;;;;;;1.50;0.90;;;27.10;85.50;;;;;;4912783;29;20475;-81
2023/09/08 08:50:20;;;;;;;1.50;1.00;;;27.20;85.80;;;;;;4915078;29;20483;-82
2023/09/08 08:52:48;;;;;;;1.50;0.80;;;27.30;85.70;;;;;;4913432;28;20571;-82
2023/09/08 08:55:15;;;;;;;1.80;1.57;;;27.30;84.80;;;;;;4924905;29;20483;-82
2023/09/08 08:57:42;;;;;;;1.50;0.90;;;27.40;85.30;;;;;;4902551;29;20492;-83
2023/09/08 09:00:11;;;;;;;1.50;0.90;;;27.60;85.80;;;;;;4917459;29;20471;-82
2023/09/08 09:02:44;;;;;;;1.50;0.80;;;27.80;84.00;;;;;;4909998;29;20484;-82
2023/09/08 09:05:13;;;;;;;1.50;0.80;;;27.90;83.60;;;;;;4921161;29;20494;-81
2023/09/08 09:07:40;;;;;;;1.50;0.80;;;28.00;84.00;;;;;;4910713;28;20510;-80
2023/09/08 09:10:14;;;;;;;1.47;0.80;;;28.10;82.70;;;;;;4920501;29;20467;-82
2023/09/08 09:12:41;;;;;;;1.40;0.80;;;28.30;82.20;;;;;;4900501;29;20515;-81
2023/09/08 09:15:09;;;;;;;1.47;0.80;;;28.30;83.10;;;;;;4919795;29;20594;-81
2023/09/08 09:17:36;;;;;;;1.47;0.87;;;28.50;81.80;;;;;;4896183;29;20489;-81
2023/09/08 09:20:17;;;;;;;1.43;0.80;;;28.60;83.30;;;;;;4916560;29;21006;-81
2023/09/08 09:22:49;;;;;;;1.50;0.93;;;28.80;82.70;;;;;;4897625;29;20941;-81
2023/09/08 09:25:25;;;;;;;1.50;0.80;;;29.10;82.00;;;;;;4922134;29;20488;-82
2023/09/08 09:27:57;;;;;;;1.43;0.90;;;29.20;80.60;;;;;;4909839;29;20582;-81
2023/09/08 09:30:45;;;;;;;1.50;0.80;;;29.30;81.70;;;;;;4926763;28;20894;-81
2023/09/08 09:33:12;;;;;;;1.43;0.80;;;29.40;80.80;;;;;;4893456;29;20487;-80
2023/09/08 09:35:45;;;;;;;1.47;0.80;;;29.50;80.10;;;;;;4922539;29;20594;-79
2023/09/08 09:38:13;;;;;;;1.50;1.07;;;29.60;79.50;;;;;;4893814;29;20478;-80
2023/09/08 09:40:40;;;;;;;1.50;0.80;;;29.60;79.80;;;;;;4919325;29;20501;-82
2023/09/08 09:43:09;;;;;;;1.40;0.90;;;29.80;79.30;;;;;;4909382;29;20491;-82
2023/09/08 09:45:37;;;;;;;1.47;0.80;;;30.00;78.70;;;;;;4922480;29;20511;-82
2023/09/08 09:48:05;;;;;;;1.50;0.90;;;30.20;78.60;;;;;;4906140;29;20500;-82
2023/09/08 09:50:34;;;;;;;1.50;1.17;;;30.20;77.60;;;;;;4918379;29;20468;-82
2023/09/08 09:53:08;;;;;;;1.47;0.80;;;30.30;77.90;;;;;;4907000;29;21043;-82
2023/09/08 09:55:37;;;;;;;1.60;1.47;;;30.40;77.90;;;;;;4923603;29;21072;-82
2023/09/08 09:58:05;;;;;;;1.43;0.80;;;30.50;77.30;;;;;;4907332;29;20902;-82
2023/09/08 10:07:11;;;;;;;1.50;1.00;;;30.80;77.00;;;;;;4846299;29;20882;-82
2023/09/08 10:09:39;;;;;;;1.43;0.80;;;31.10;75.20;;;;;;4905569;29;20468;-82
2023/09/08 10:12:09;;;;;;;1.47;0.87;;;31.10;76.00;;;;;;4905316;29;20488;-83
2023/09/08 10:15:18;;;;;;;1.50;0.90;;;31.10;75.60;;;;;;4903901;29;20528;-84
2023/09/08 10:17:56;;;;;;;1.50;0.80;;;31.30;75.70;;;;;;4907620;29;20480;-84
2023/09/08 10:21:06;;;;;;;1.43;0.80;;;31.40;75.90;;;;;;4904822;29;20468;-83
2023/09/08 10:23:40;;;;;;;1.43;0.80;;;31.60;74.70;;;;;;4891262;29;20498;-83
2023/09/08 10:26:12;;;;;;;1.47;0.80;;;31.70;75.20;;;;;;4931954;28;20483;-83
2023/09/08 10:28:48;;;;;;;1.47;0.80;;;31.90;74.90;;;;;;4938477;28;20538;-83
2023/09/08 10:34:11;;;;;;;1.50;1.00;;;31.90;74.20;;;;;;4920398;28;20511;-82
2023/09/08 10:36:39;;;;;;;1.43;0.80;;;31.80;73.80;;;;;;4934063;28;21012;-80
2023/09/08 10:39:28;;;;;;;1.43;0.80;;;31.70;74.70;;;;;;4937252;28;20485;-81
2023/09/08 10:42:28;;;;;;;1.47;0.80;;;31.80;73.40;;;;;;4935995;28;20625;-82
2023/09/08 10:45:05;;;;;;;1.47;0.90;;;31.90;74.10;;;;;;4944550;28;20502;-81
2023/09/08 10:47:56;;;;;;;1.47;0.80;;;32.00;72.90;;;;;;4921006;28;20582;-82
2023/09/08 10:54:05;;;;;;;1.50;0.80;;;32.10;73.80;;;;;;4933276;28;20498;-81
2023/09/08 10:56:54;;;;;;;1.50;1.00;;;32.30;74.50;;;;;;4927472;28;20483;-83
2023/09/08 10:59:29;;;;;;;1.43;0.80;;;32.40;72.70;;;;;;4937508;28;20290;-81
2023/09/08 11:02:29;;;;;;;1.50;0.80;;;32.60;73.30;;;;;;4917629;28;20793;-82
2023/09/08 11:05:25;;;;;;;1.47;0.80;;;32.60;73.50;;;;;;4904461;29;20233;-82
2023/09/08 11:07:53;;;;;;;1.70;1.17;;;32.70;73.00;;;;;;4890645;29;20236;-83
2023/09/08 11:10:57;;;;;;;1.43;0.80;;;32.70;72.90;;;;;;4916991;28;20490;-83
2023/09/08 11:13:24;;;;;;;1.43;0.90;;;32.90;72.90;;;;;;4916376;28;20234;-81
2023/09/08 11:16:10;;;;;;;1.43;0.80;;;33.10;72.30;;;;;;4932356;28;20235;-81
2023/09/08 11:18:37;;;;;;;1.40;0.80;;;33.30;72.30;;;;;;4941134;28;20269;-81
2023/09/08 11:21:10;;;;;;;1.50;0.90;;;33.40;70.90;;;;;;4934867;28;20222;-82
2023/09/08 11:23:47;;;;;;;1.50;1.00;;;33.40;71.60;;;;;;4931444;28;20266;-82
2023/09/08 11:26:46;;;;;;;1.47;0.80;;;33.40;72.40;;;;;;4933799;28;20231;-82
2023/09/08 11:29:13;;;;;;;1.40;0.80;;;33.50;71.80;;;;;;4918770;28;20282;-83
2023/09/08 11:31:44;;;;;;;1.47;0.80;;;33.70;73.60;;;;;;4929366;28;20321;-82
2023/09/08 11:34:14;;;;;;;1.50;0.90;;;33.80;72.10;;;;;;4942291;28;20227;-83
2023/09/08 11:36:41;;;;;;;1.40;0.80;;;34.00;71.40;;;;;;4931635;28;20688;-82
2023/09/08 11:39:10;;;;;;;1.47;0.80;;;33.90;70.10;;;;;;4953868;28;20292;-83
2023/09/08 11:41:37;;;;;;;1.42;0.80;;;33.90;70.10;;;;;;4931508;28;20276;-84
2023/09/08 11:44:09;;;;;;;1.40;0.90;;;33.80;69.10;;;;;;4940972;28;20222;-82
2023/09/08 11:46:36;;;;;;;1.43;0.83;;;33.50;71.40;;;;;;4933110;28;20239;-83
2023/09/08 11:49:10;;;;;;;1.47;0.80;;;33.50;71.10;;;;;;4939024;28;20532;-82
2023/09/08 11:51:48;;;;;;;1.47;0.80;;;33.70;72.30;;;;;;4930765;28;20273;-83
2023/09/08 11:54:34;;;;;;;1.43;0.80;;;33.80;71.70;;;;;;4940534;28;20453;-83
2023/09/08 11:57:11;;;;;;;1.42;0.80;;;33.80;70.70;;;;;;4924655;28;20231;-83
2023/09/08 11:59:42;;;;;;;1.50;0.80;;;33.80;71.00;;;;;;4938530;28;20222;-84
2023/09/08 12:02:11;;;;;;;1.40;0.80;;;33.80;70.00;;;;;;4927644;28;20235;-84
2023/09/08 12:04:41;;;;;;;1.47;0.80;;;33.70;71.30;;;;;;4937767;28;20250;-83
2023/09/08 12:07:16;;;;;;;1.40;0.80;;;33.90;71.50;;;;;;4927286;28;20230;-83
2023/09/08 12:09:43;;;;;;;1.40;0.80;;;34.10;70.30;;;;;;4936484;28;20211;-81
2023/09/08 12:12:34;;;;;;;1.60;1.00;;;34.10;69.90;;;;;;4931717;28;20303;-86
2023/09/08 12:15:07;;;;;;;1.93;1.73;;;34.00;69.40;;;;;;4923933;28;20262;-83
2023/09/08 12:17:48;;;;;;;1.50;0.80;;;34.10;70.60;;;;;;4921887;28;20246;-83
2023/09/08 12:24:12;;;;;;;1.40;0.80;;;34.60;70.80;;;;;;4834611;29;20525;-83
2023/09/08 12:26:39;;;;;;;1.40;0.80;;;34.80;69.00;;;;;;4926144;28;20227;-82
2023/09/08 12:29:28;;;;;;;1.40;0.80;;;34.90;68.40;;;;;;4945569;28;20233;-82
2023/09/08 12:31:55;;;;;;;1.43;0.80;;;34.80;69.50;;;;;;4928838;28;20235;-83
2023/09/08 12:34:44;;;;;;;1.40;0.80;;;34.70;68.40;;;;;;4944142;28;20785;-82
2023/09/08 12:37:16;;;;;;;1.50;0.90;;;34.70;69.80;;;;;;4922450;28;20330;-82
2023/09/08 12:39:46;;;;;;;1.45;0.80;;;34.90;69.80;;;;;;4932879;28;20503;-82
2023/09/08 12:42:15;;;;;;;1.45;0.80;;;35.00;70.30;;;;;;4928904;28;20242;-81
2023/09/08 12:44:47;;;;;;;1.40;0.80;;;35.20;69.00;;;;;;4939950;28;20234;-81
2023/09/08 12:47:14;;;;;;;1.50;0.90;;;35.30;68.70;;;;;;4925301;28;20262;-82
2023/09/08 12:49:41;;;;;;;1.42;0.80;;;35.30;68.30;;;;;;4935597;28;20266;-82
2023/09/08 12:52:31;;;;;;;1.45;0.80;;;35.30;67.80;;;;;;4925813;28;20234;-82
2023/09/08 12:55:02;;;;;;;3.45;2.65;;;35.30;68.90;;;;;;4939118;28;20227;-81
2023/09/08 12:57:29;;;;;;;1.48;0.85;;;35.50;71.80;;;;;;4929401;28;20231;-81
2023/09/08 12:59:59;;;;;;;1.40;0.80;;;35.60;68.10;;;;;;4938469;28;20352;-81
2023/09/08 13:02:34;;;;;;;1.40;0.80;;;35.70;67.30;;;;;;4917551;28;20234;-82
2023/09/08 13:05:05;;;;;;;1.40;0.80;;;35.70;66.90;;;;;;4941375;28;20238;-82
2023/09/08 13:07:32;;;;;;;1.40;0.80;;;35.80;67.70;;;;;;4932058;28;20766;-82
2023/09/08 13:10:00;;;;;;;1.50;1.00;;;35.70;67.00;;;;;;4939593;28;20625;-81
2023/09/08 13:12:27;;;;;;;1.40;0.80;;;35.50;66.90;;;;;;4927394;28;20238;-82
2023/09/08 13:14:55;;;;;;;1.45;0.80;;;35.40;67.50;;;;;;4941933;28;20238;-82
2023/09/08 13:17:25;;;;;;;1.45;0.88;;;35.30;67.60;;;;;;4926850;28;20231;-83
2023/09/08 13:19:58;;;;;;;1.40;0.80;;;35.40;68.70;;;;;;4939743;28;20203;-82
2023/09/08 13:25:49;;;;;;;1.42;0.80;;;35.50;68.70;;;;;;4939038;28;20612;-81
2023/09/08 13:28:16;;;;;;;1.40;0.80;;;35.60;67.70;;;;;;4926292;28;20231;-83
2023/09/08 13:30:45;;;;;;;1.40;0.80;;;35.60;67.50;;;;;;4941655;28;20593;-82
2023/09/08 13:33:15;;;;;;;1.40;0.80;;;35.40;67.80;;;;;;4915154;28;20656;-83
2023/09/08 13:35:45;;;;;;;1.50;1.13;;;35.40;67.50;;;;;;4937662;28;20310;-83
2023/09/08 13:38:14;;;;;;;1.40;0.80;;;35.30;67.60;;;;;;4906259;28;20231;-83
2023/09/08 13:40:42;;;;;;;1.40;0.80;;;35.30;67.30;;;;;;4939287;28;20206;-82
2023/09/08 13:43:13;;;;;;;1.63;1.02;;;35.20;67.30;;;;;;4929497;28;20709;-82
2023/09/08 13:45:42;;;;;;;1.40;0.80;;;35.30;67.50;;;;;;4947862;28;20302;-82
2023/09/08 13:48:14;;;;;;;1.42;0.90;;;35.20;66.70;;;;;;4933534;28;20346;-83
2023/09/08 13:50:43;;;;;;;1.40;0.80;;;35.10;67.20;;;;;;4937868;28;20238;-83
2023/09/08 13:53:15;;;;;;;1.40;0.80;;;35.20;68.30;;;;;;4932404;28;20234;-83
2023/09/08 13:55:42;;;;;;;1.40;0.90;;;35.20;67.30;;;;;;4939645;28;20760;-82
2023/09/08 13:58:10;;;;;;;1.60;1.10;;;35.30;68.30;;;;;;4917322;28;20250;-82
2023/09/08 14:00:38;;;;;;;1.40;0.80;;;35.30;68.00;;;;;;4934712;28;20215;-82
2023/09/08 14:03:06;;;;;;;1.40;0.80;;;35.40;67.00;;;;;;4926183;28;20230;-83
2023/09/08 14:05:54;;;;;;;1.40;0.80;;;35.30;65.30;;;;;;4933506;28;20234;-83
2023/09/08 14:08:24;;;;;;;1.40;0.80;;;35.20;67.60;;;;;;4909440;28;20230;-83
2023/09/08 14:10:57;;;;;;;1.40;0.80;;;35.40;67.60;;;;;;4924732;28;20212;-83
2023/09/08 14:13:25;;;;;;;1.40;0.80;;;35.40;66.80;;;;;;4921722;28;20216;-82
2023/09/08 14:15:54;;;;;;;1.40;0.80;;;35.10;65.80;;;;;;4930986;28;20282;-83
2023/09/08 14:18:25;;;;;;;1.40;0.80;;;35.00;67.30;;;;;;4934671;28;20207;-82
2023/09/08 14:20:57;;;;;;;1.40;0.80;;;35.00;67.80;;;;;;4925340;28;20239;-82
2023/09/08 14:23:24;;;;;;;1.40;0.80;;;34.90;68.90;;;;;;4944950;28;20218;-83
2023/09/08 14:29:28;;;;;;;1.40;0.80;;;35.10;69.00;;;;;;4835162;29;20267;-83
2023/09/08 14:31:58;;;;;;;1.40;0.80;;;35.20;66.70;;;;;;4907964;28;20653;-83
2023/09/08 14:34:25;;;;;;;1.70;1.36;;;35.10;67.50;;;;;;4895002;28;1181933;-83
2023/09/08 14:36:55;;;;;;;1.40;0.90;;;35.00;67.20;;;;;;4919290;28;20658;-82
2023/09/08 14:39:23;;;;;;;1.40;0.80;;;34.90;68.10;;;;;;4930928;28;20215;-82
2023/09/08 14:41:53;;;;;;;1.40;0.80;;;35.00;67.90;;;;;;4918643;28;20232;-82
2023/09/08 14:44:25;;;;;;;1.40;0.80;;;35.00;67.50;;;;;;4927492;28;20223;-83
2023/09/08 14:46:53;;;;;;;1.40;0.80;;;35.10;67.40;;;;;;4942991;28;20683;-82
2023/09/08 14:49:26;;;;;;;1.40;0.80;;;35.00;66.80;;;;;;4934047;28;20210;-81
2023/09/08 14:52:13;;;;;;;1.40;0.80;;;34.90;67.80;;;;;;4918522;28;20242;-82
2023/09/08 14:57:34;;;;;;;1.40;0.80;;;34.80;67.80;;;;;;4917178;28;20250;-82
2023/09/08 15:00:12;;;;;;;1.40;0.80;;;34.80;68.90;;;;;;4937028;28;20214;-83
2023/09/08 15:02:47;;;;;;;1.40;0.80;;;34.80;67.90;;;;;;4925472;28;20318;-82
2023/09/08 15:05:17;;;;;;;1.50;1.00;;;34.70;68.10;;;;;;4939719;28;20227;-81
2023/09/08 15:07:50;;;;;;;1.40;0.80;;;34.70;69.00;;;;;;4925857;28;20230;-81
2023/09/08 15:10:28;;;;;;;1.40;0.90;;;34.70;68.30;;;;;;4940995;28;20205;-81
2023/09/08 15:12:55;;;;;;;1.40;0.80;;;34.70;67.30;;;;;;4917735;28;20227;-81
2023/09/08 15:15:24;;;;;;;1.40;0.80;;;34.70;69.80;;;;;;4943740;28;20241;-80
2023/09/08 15:17:53;;;;;;;1.50;1.00;;;34.60;67.70;;;;;;4914220;29;20231;-81
2023/09/08 15:20:21;;;;;;;1.40;0.82;;;34.50;68.60;;;;;;4936562;28;20594;-81
2023/09/08 15:22:51;;;;;;;1.43;0.80;;;34.40;69.20;;;;;;4915213;28;20236;-82
2023/09/08 15:25:19;;;;;;;1.40;0.80;;;34.30;69.50;;;;;;4940550;28;20259;-82
2023/09/08 15:27:48;;;;;;;1.43;0.90;;;34.30;69.90;;;;;;4929815;28;20702;-82
2023/09/08 15:30:24;;;;;;;1.40;0.80;;;34.40;69.90;;;;;;4942255;28;20626;-82
2023/09/08 15:32:53;;;;;;;1.40;0.80;;;34.30;72.00;;;;;;4946914;28;20218;-83
2023/09/08 15:35:20;;;;;;;1.40;0.80;;;34.30;67.90;;;;;;4937637;28;20605;-83
2023/09/08 15:37:48;;;;;;;1.50;0.90;;;34.20;69.70;;;;;;4918253;28;20278;-83
2023/09/08 15:40:16;;;;;;;1.40;0.80;;;34.20;68.80;;;;;;4939510;28;20215;-82
2023/09/08 15:42:43;;;;;;;1.40;0.80;;;34.20;70.00;;;;;;4926241;28;20235;-81
2023/09/08 15:45:11;;;;;;;1.43;0.80;;;34.20;70.70;;;;;;4936562;28;20303;-81